createdAt,value
2019-03-29T00:02:17.085Z,16.12
2019-03-29T00:04:47.723Z,23.77
2019-03-29T00:07:16.971Z,25.48
2019-03-29T00:09:46.183Z,20.65
2019-03-29T00:12:17.840Z,24.65
2019-03-29T00:14:48.048Z,21.48
2019-03-29T00:17:17.993Z,22.42
2019-03-29T00:19:48.562Z,20.08
2019-03-29T00:22:17.797Z,21.05
2019-03-29T00:24:47.037Z,20.57
2019-03-29T00:27:16.219Z,27.95
2019-03-29T00:29:46.515Z,25.50
2019-03-29T00:32:15.788Z,25.08
2019-03-29T00:34:44.944Z,21.82
2019-03-29T00:37:14.144Z,21.87
2019-03-29T00:39:43.299Z,27.48
2019-03-29T00:42:12.528Z,25.00
2019-03-29T00:44:41.742Z,26.02
2019-03-29T00:47:10.950Z,20.40
2019-03-29T00:49:40.308Z,25.80
2019-03-29T00:52:12.834Z,21.75
2019-03-29T00:54:42.059Z,23.55
2019-03-29T00:57:12.923Z,25.75
2019-03-29T00:59:42.118Z,24.77
2019-03-29T01:02:11.290Z,25.23
2019-03-29T01:04:40.508Z,30.95
2019-03-29T01:07:09.697Z,28.17
2019-03-29T01:09:38.931Z,22.93
2019-03-29T01:12:08.108Z,28.67
2019-03-29T01:14:37.276Z,23.18
2019-03-29T01:17:10.775Z,29.65
2019-03-29T01:19:37.299Z,33.08
2019-03-29T01:22:06.545Z,30.40
2019-03-29T01:24:38.026Z,25.60
2019-03-29T01:27:07.178Z,30.62
2019-03-29T01:29:36.360Z,25.45
2019-03-29T01:32:05.541Z,24.77
2019-03-29T01:34:36.332Z,25.02
2019-03-29T01:37:05.457Z,24.80
2019-03-29T01:39:34.623Z,27.48
2019-03-29T01:42:03.831Z,22.95
2019-03-29T01:44:33.022Z,23.77
2019-03-29T01:47:04.086Z,21.73
2019-03-29T01:49:35.188Z,30.32
2019-03-29T01:52:04.341Z,25.65
2019-03-29T01:54:33.507Z,23.87
2019-03-29T01:57:02.682Z,27.13
2019-03-29T01:59:31.827Z,25.60
2019-03-29T02:02:00.895Z,20.55
2019-03-29T02:04:30.066Z,22.52
2019-03-29T02:06:59.143Z,22.17
2019-03-29T02:09:28.295Z,21.97
2019-03-29T02:11:57.512Z,25.60
2019-03-29T02:14:26.841Z,25.30
2019-03-29T02:16:56.050Z,23.50
2019-03-29T02:19:25.415Z,27.90
2019-03-29T02:21:54.570Z,24.27
2019-03-29T02:24:24.038Z,28.60
2019-03-29T02:26:53.410Z,27.35
2019-03-29T02:29:22.570Z,23.77
2019-03-29T02:31:51.733Z,32.23
2019-03-29T02:34:20.913Z,28.98
2019-03-29T02:36:50.327Z,28.52
2019-03-29T02:39:19.427Z,26.62
2019-03-29T02:41:48.563Z,31.75
2019-03-29T02:44:17.739Z,25.52
2019-03-29T02:46:46.921Z,27.82
2019-03-29T02:49:16.071Z,25.52
2019-03-29T02:51:45.231Z,24.23
2019-03-29T02:54:14.470Z,28.23
2019-03-29T02:56:43.595Z,29.02
2019-03-29T02:59:12.749Z,30.75
2019-03-29T03:01:41.840Z,30.08
2019-03-29T03:04:11.080Z,25.48
2019-03-29T03:06:40.277Z,23.65
2019-03-29T03:09:14.054Z,24.35
2019-03-29T03:11:40.230Z,25.17
2019-03-29T03:14:09.432Z,24.05
2019-03-29T03:16:38.600Z,31.57
2019-03-29T03:19:07.773Z,30.00
2019-03-29T03:21:36.918Z,25.57
2019-03-29T03:24:06.039Z,30.80
2019-03-29T03:26:35.212Z,24.82
2019-03-29T03:29:04.382Z,27.80
2019-03-29T03:31:33.572Z,24.55
2019-03-29T03:34:02.819Z,22.77
2019-03-29T03:36:32.384Z,27.62
2019-03-29T03:39:01.536Z,22.93
2019-03-29T03:41:30.727Z,26.82
2019-03-29T03:44:00.010Z,21.37
2019-03-29T03:46:29.195Z,24.55
2019-03-29T03:48:58.347Z,25.57
2019-03-29T03:51:27.764Z,26.17
2019-03-29T03:53:57.272Z,27.15
2019-03-29T03:56:28.027Z,28.87
2019-03-29T03:58:58.515Z,24.57
2019-03-29T04:01:27.634Z,24.37
2019-03-29T04:03:56.786Z,18.55
2019-03-29T04:06:25.889Z,20.88
2019-03-29T04:08:55.047Z,21.93
2019-03-29T04:11:24.210Z,19.35
2019-03-29T04:13:53.363Z,20.82
2019-03-29T04:16:22.531Z,17.67
2019-03-29T04:18:51.700Z,24.18
2019-03-29T04:21:20.864Z,21.30
2019-03-29T04:23:49.972Z,20.52
2019-03-29T04:26:19.135Z,21.25
2019-03-29T04:29:03.531Z,17.23
2019-03-29T04:31:19.136Z,21.00
2019-03-29T04:33:48.387Z,19.92
2019-03-29T04:36:17.555Z,19.75
2019-03-29T04:38:46.693Z,22.90
2019-03-29T04:41:15.837Z,19.30
2019-03-29T04:43:44.915Z,20.52
2019-03-29T04:46:14.041Z,20.88
2019-03-29T04:48:43.196Z,20.65
2019-03-29T04:51:12.268Z,19.12
2019-03-29T04:53:41.433Z,27.13
2019-03-29T04:56:10.534Z,26.40
2019-03-29T04:58:39.608Z,27.05
2019-03-29T05:01:08.679Z,28.35
2019-03-29T05:03:37.840Z,23.65
2019-03-29T05:06:07.010Z,24.63
2019-03-29T05:08:36.186Z,25.88
2019-03-29T05:11:06.874Z,23.67
2019-03-29T05:13:35.960Z,27.60
2019-03-29T05:16:05.058Z,29.30
2019-03-29T05:18:34.164Z,25.08
2019-03-29T05:21:03.337Z,28.07
2019-03-29T05:23:32.507Z,27.45
2019-03-29T05:26:01.572Z,27.65
2019-03-29T05:28:35.818Z,25.60
2019-03-29T05:31:09.006Z,23.75
2019-03-29T05:33:37.889Z,17.98
2019-03-29T05:36:06.957Z,27.05
2019-03-29T05:38:36.128Z,22.48
2019-03-29T05:41:05.232Z,20.90
2019-03-29T05:43:34.383Z,23.50
2019-03-29T05:46:03.498Z,22.70
2019-03-29T05:48:32.592Z,20.60
2019-03-29T05:51:01.703Z,21.57
2019-03-29T05:53:30.854Z,23.00
2019-03-29T05:56:00.030Z,22.67
2019-03-29T05:58:29.189Z,21.37
2019-03-29T06:00:58.346Z,24.18
2019-03-29T06:03:27.523Z,21.85
2019-03-29T06:05:56.655Z,21.10
2019-03-29T06:08:25.764Z,22.45
2019-03-29T06:10:54.917Z,23.00
2019-03-29T06:13:24.146Z,20.57
2019-03-29T06:15:53.259Z,23.32
2019-03-29T06:18:22.355Z,24.60
2019-03-29T06:20:51.530Z,21.07
2019-03-29T06:23:20.695Z,23.30
2019-03-29T06:25:49.778Z,23.75
2019-03-29T06:28:18.866Z,19.05
2019-03-29T06:30:47.951Z,22.75
2019-03-29T06:33:17.117Z,19.70
2019-03-29T06:35:47.996Z,24.12
2019-03-29T06:38:18.148Z,23.05
2019-03-29T06:40:47.247Z,18.95
2019-03-29T06:43:16.332Z,20.20
2019-03-29T06:45:48.153Z,20.40
2019-03-29T06:48:17.336Z,20.97
2019-03-29T06:50:46.468Z,20.75
2019-03-29T06:53:15.642Z,19.27
2019-03-29T06:55:44.727Z,20.45
2019-03-29T06:58:13.874Z,21.52
2019-03-29T07:00:43.038Z,19.25
2019-03-29T07:03:12.121Z,21.42
2019-03-29T07:05:41.270Z,21.17
2019-03-29T07:08:10.439Z,20.20
2019-03-29T07:10:39.505Z,22.32
2019-03-29T07:13:08.670Z,22.25
2019-03-29T07:15:37.774Z,20.62
2019-03-29T07:18:06.917Z,19.98
2019-03-29T07:20:36.005Z,20.00
2019-03-29T07:23:05.087Z,19.90
2019-03-29T07:25:34.186Z,19.60
2019-03-29T07:28:03.403Z,20.85
2019-03-29T07:30:32.552Z,20.05
2019-03-29T07:33:01.711Z,20.70
2019-03-29T07:35:30.880Z,21.60
2019-03-29T07:38:00.046Z,19.92
2019-03-29T07:40:29.199Z,20.57
2019-03-29T07:42:58.300Z,19.87
2019-03-29T07:45:27.491Z,20.08
2019-03-29T07:47:56.594Z,21.55
2019-03-29T07:50:25.774Z,19.00
2019-03-29T07:52:54.929Z,20.02
2019-03-29T07:55:24.078Z,23.18
2019-03-29T07:57:53.182Z,22.15
2019-03-29T08:00:22.343Z,22.80
2019-03-29T08:02:51.444Z,23.40
2019-03-29T08:05:20.536Z,22.17
2019-03-29T08:07:49.610Z,21.97
2019-03-29T08:10:25.735Z,19.27
2019-03-29T08:12:49.847Z,23.60
2019-03-29T08:15:18.973Z,20.23
2019-03-29T08:17:48.145Z,19.60
2019-03-29T08:20:38.942Z,21.90
2019-03-29T08:22:48.129Z,19.27
2019-03-29T08:25:17.371Z,21.42
2019-03-29T08:27:46.589Z,18.60
2019-03-29T08:30:15.798Z,23.95
2019-03-29T08:32:44.915Z,22.58
2019-03-29T08:35:14.104Z,22.37
2019-03-29T08:37:43.181Z,23.75
2019-03-29T08:40:12.430Z,21.62
2019-03-29T08:42:41.558Z,22.30
2019-03-29T08:45:10.699Z,21.45
2019-03-29T08:47:39.884Z,22.15
2019-03-29T08:50:09.181Z,21.37
2019-03-29T08:52:38.285Z,20.77
2019-03-29T08:55:07.809Z,25.40
2019-03-29T08:57:36.962Z,24.72
2019-03-29T09:00:07.753Z,22.98
2019-03-29T09:02:37.108Z,21.37
2019-03-29T09:05:06.200Z,22.60
2019-03-29T09:07:44.608Z,23.77
2019-03-29T09:10:23.430Z,30.12
2019-03-29T09:12:52.617Z,22.58
2019-03-29T09:15:21.778Z,28.00
2019-03-29T09:17:50.948Z,24.87
2019-03-29T09:20:20.106Z,24.67
2019-03-29T09:22:49.205Z,27.20
2019-03-29T09:25:20.913Z,27.25
2019-03-29T09:27:49.400Z,28.38
2019-03-29T09:30:18.796Z,27.75
2019-03-29T09:32:51.073Z,31.75
2019-03-29T09:35:18.788Z,29.95
2019-03-29T09:37:47.927Z,33.10
2019-03-29T09:40:17.067Z,34.43
2019-03-29T09:42:46.215Z,33.83
2019-03-29T09:45:15.385Z,30.88
2019-03-29T09:47:44.541Z,31.45
2019-03-29T09:50:13.690Z,32.13
2019-03-29T09:52:42.875Z,33.13
2019-03-29T09:55:12.340Z,28.62
2019-03-29T09:57:41.528Z,31.12
2019-03-29T10:00:20.947Z,28.10
2019-03-29T10:02:42.042Z,29.02
2019-03-29T10:05:12.726Z,28.98
2019-03-29T10:07:41.891Z,30.30
2019-03-29T10:10:11.381Z,30.82
2019-03-29T10:12:43.895Z,28.50
2019-03-29T10:15:12.793Z,29.80
2019-03-29T10:17:42.136Z,30.97
2019-03-29T10:20:11.550Z,29.32
2019-03-29T10:22:40.687Z,30.97
2019-03-29T10:25:19.234Z,33.02
2019-03-29T10:27:40.773Z,32.03
2019-03-29T10:30:10.456Z,33.73
2019-03-29T10:32:39.633Z,37.15
2019-03-29T10:35:08.817Z,32.10
2019-03-29T10:37:37.995Z,29.90
2019-03-29T10:40:07.275Z,29.50
2019-03-29T10:42:39.800Z,30.45
2019-03-29T10:45:07.332Z,32.33
2019-03-29T10:47:43.728Z,28.25
2019-03-29T10:50:07.575Z,31.27
2019-03-29T10:52:36.789Z,27.60
2019-03-29T10:55:06.173Z,27.98
2019-03-29T10:57:35.380Z,27.58
2019-03-29T11:00:07.875Z,27.55
2019-03-29T11:02:37.045Z,28.50
2019-03-29T11:05:06.864Z,31.07
2019-03-29T11:07:35.952Z,26.20
2019-03-29T11:10:06.821Z,29.65
2019-03-29T11:12:35.973Z,33.40
2019-03-29T11:15:06.872Z,30.95
2019-03-29T11:17:36.170Z,29.65
2019-03-29T11:20:06.377Z,30.77
2019-03-29T11:22:35.551Z,31.85
2019-03-29T11:25:05.983Z,29.95
2019-03-29T11:27:35.145Z,29.77
2019-03-29T11:30:06.438Z,30.25
2019-03-29T11:32:35.613Z,31.10
2019-03-29T11:35:05.470Z,30.60
2019-03-29T11:37:34.566Z,29.75
2019-03-29T11:40:05.983Z,31.97
2019-03-29T11:42:35.109Z,31.00
2019-03-29T11:45:05.721Z,30.65
2019-03-29T11:47:34.874Z,32.40
2019-03-29T11:50:05.501Z,29.27
2019-03-29T11:52:34.617Z,30.68
2019-03-29T11:55:04.498Z,31.90
2019-03-29T11:57:33.570Z,35.20
2019-03-29T12:00:02.667Z,33.78
2019-03-29T12:02:31.922Z,31.97
2019-03-29T12:05:01.140Z,31.62
2019-03-29T12:07:30.295Z,31.48
2019-03-29T12:09:59.458Z,28.98
2019-03-29T12:12:28.554Z,33.48
2019-03-29T12:14:57.647Z,29.82
2019-03-29T12:17:26.809Z,30.97
2019-03-29T12:19:55.954Z,33.78
2019-03-29T12:22:25.089Z,32.80
2019-03-29T12:24:54.243Z,30.27
2019-03-29T12:27:23.339Z,30.40
2019-03-29T12:29:52.485Z,33.35
2019-03-29T12:32:21.557Z,31.60
2019-03-29T12:34:50.679Z,30.35
2019-03-29T12:37:19.826Z,33.08
2019-03-29T12:39:48.952Z,34.13
2019-03-29T12:42:18.032Z,34.95
2019-03-29T12:44:47.121Z,33.33
2019-03-29T12:47:16.204Z,34.73
2019-03-29T12:49:45.362Z,35.92
2019-03-29T12:52:14.508Z,36.58
2019-03-29T12:54:43.817Z,36.03
2019-03-29T12:57:12.954Z,36.75
2019-03-29T12:59:42.241Z,36.70
2019-03-29T13:02:11.890Z,38.48
2019-03-29T13:04:41.235Z,32.93
2019-03-29T13:07:10.385Z,34.60
2019-03-29T13:09:39.855Z,33.67
2019-03-29T13:12:09.118Z,34.63
2019-03-29T13:14:38.270Z,33.18
2019-03-29T13:17:07.353Z,27.07
2019-03-29T13:19:36.519Z,27.48
2019-03-29T13:22:06.617Z,27.37
2019-03-29T13:24:35.719Z,24.52
2019-03-29T13:27:04.883Z,21.68
2019-03-29T13:29:34.034Z,25.88
2019-03-29T13:32:03.298Z,21.17
2019-03-29T13:34:32.445Z,24.92
2019-03-29T13:37:01.546Z,26.97
2019-03-29T13:39:30.677Z,34.03
2019-03-29T13:41:59.798Z,31.20
2019-03-29T13:44:28.927Z,33.23
2019-03-29T13:46:58.018Z,30.95
2019-03-29T13:49:27.109Z,37.13
2019-03-29T13:51:56.236Z,35.03
2019-03-29T13:54:25.897Z,33.60
2019-03-29T13:56:54.981Z,33.98
2019-03-29T13:59:24.061Z,31.33
2019-03-29T14:01:53.199Z,33.90
2019-03-29T14:04:22.296Z,34.98
2019-03-29T14:06:51.420Z,35.60
2019-03-29T14:09:20.521Z,35.13
2019-03-29T14:11:49.712Z,35.13
2019-03-29T14:14:18.851Z,35.55
2019-03-29T14:16:47.965Z,34.80
2019-03-29T14:19:17.026Z,35.43
2019-03-29T14:21:46.107Z,37.42
2019-03-29T14:24:15.258Z,35.20
2019-03-29T14:26:44.333Z,33.98
2019-03-29T14:29:13.426Z,35.43
2019-03-29T14:31:42.517Z,35.08
2019-03-29T14:34:11.692Z,34.98
2019-03-29T14:36:40.767Z,39.95
2019-03-29T14:39:09.851Z,39.70
2019-03-29T14:41:38.983Z,38.33
2019-03-29T14:44:08.167Z,36.53
2019-03-29T14:46:38.015Z,41.88
2019-03-29T14:49:10.776Z,33.83
2019-03-29T14:51:39.864Z,36.75
2019-03-29T14:54:09.070Z,34.58
2019-03-29T14:56:38.162Z,37.55
2019-03-29T14:59:07.285Z,29.87
2019-03-29T15:01:36.439Z,28.80
2019-03-29T15:04:05.534Z,33.67
2019-03-29T15:06:34.620Z,29.50
2019-03-29T15:09:05.782Z,28.57
2019-03-29T15:11:34.983Z,29.23
2019-03-29T15:14:04.080Z,31.02
2019-03-29T15:16:33.219Z,25.82
2019-03-29T15:19:02.413Z,23.45
2019-03-29T15:21:31.652Z,29.05
2019-03-29T15:24:00.854Z,27.75
2019-03-29T15:26:30.003Z,26.15
2019-03-29T15:29:01.051Z,28.35
2019-03-29T15:31:30.215Z,28.10
2019-03-29T15:33:59.390Z,25.20
2019-03-29T15:36:28.537Z,27.45
2019-03-29T15:38:57.698Z,25.90
2019-03-29T15:41:26.856Z,22.32
2019-03-29T15:43:55.959Z,26.10
2019-03-29T15:46:25.109Z,24.15
2019-03-29T15:48:54.221Z,25.68
2019-03-29T15:51:23.399Z,23.27
2019-03-29T15:53:52.599Z,26.75
2019-03-29T15:56:21.757Z,26.50
2019-03-29T15:58:50.935Z,25.85
2019-03-29T16:01:20.063Z,28.45
2019-03-29T16:03:54.857Z,23.65
2019-03-29T16:06:23.950Z,26.50
2019-03-29T16:08:53.030Z,28.65
2019-03-29T16:11:22.675Z,29.00
2019-03-29T16:13:51.956Z,28.38
2019-03-29T16:16:21.100Z,29.77
2019-03-29T16:18:50.178Z,30.20
2019-03-29T16:21:19.260Z,31.35
2019-03-29T16:23:48.363Z,31.07
2019-03-29T16:26:17.528Z,28.10
2019-03-29T16:28:46.700Z,27.55
2019-03-29T16:31:17.905Z,30.77
2019-03-29T16:33:47.020Z,33.05
2019-03-29T16:36:16.235Z,30.25
2019-03-29T16:38:45.426Z,29.75
2019-03-29T17:06:26.963Z,32.67
2019-03-29T17:08:56.104Z,34.50
2019-03-29T17:11:25.224Z,33.73
2019-03-29T17:13:54.310Z,34.55
2019-03-29T17:16:30.245Z,31.50
2019-03-29T17:18:54.216Z,34.55
2019-03-29T17:21:23.324Z,30.57
2019-03-29T17:23:52.889Z,32.25
2019-03-29T17:26:22.237Z,33.25
2019-03-29T17:28:51.346Z,30.50
2019-03-29T17:31:20.469Z,34.88
2019-03-29T17:33:49.528Z,33.28
2019-03-29T17:36:18.598Z,33.33
2019-03-29T17:38:47.736Z,32.13
2019-03-29T17:41:18.719Z,37.63
2019-03-29T17:43:48.087Z,33.33
2019-03-29T17:46:17.347Z,31.80
2019-03-29T17:48:46.545Z,31.45
2019-03-29T17:51:15.698Z,26.95
2019-03-29T17:53:44.768Z,27.32
2019-03-29T17:56:13.951Z,29.92
2019-03-29T17:58:43.105Z,26.25
2019-03-29T18:01:12.178Z,25.97
2019-03-29T18:03:41.333Z,25.97
2019-03-29T18:06:10.479Z,25.70
2019-03-29T18:08:39.630Z,27.95
2019-03-29T18:11:08.778Z,28.57
2019-03-29T18:13:37.856Z,27.13
2019-03-29T18:16:06.994Z,23.95
2019-03-29T18:18:36.141Z,23.02
2019-03-29T18:21:05.416Z,27.25
2019-03-29T18:23:34.558Z,24.85
2019-03-29T18:26:03.713Z,25.17
2019-03-29T18:28:32.855Z,24.12
2019-03-29T18:31:02.124Z,25.32
2019-03-29T18:33:31.238Z,22.90
2019-03-29T18:36:00.305Z,24.43
2019-03-29T18:38:30.255Z,25.08
2019-03-29T18:41:01.318Z,21.52
2019-03-29T18:43:30.459Z,23.02
2019-03-29T18:45:59.636Z,23.22
2019-03-29T18:48:28.831Z,21.05
2019-03-29T18:50:57.993Z,20.15
2019-03-29T18:53:27.100Z,20.50
2019-03-29T18:55:56.308Z,20.30
2019-03-29T18:58:25.390Z,23.92
2019-03-29T19:00:54.467Z,21.55
2019-03-29T19:03:23.603Z,22.15
2019-03-29T19:05:52.850Z,20.62
2019-03-29T19:08:21.941Z,27.22
2019-03-29T19:10:51.076Z,30.30
2019-03-29T19:13:20.250Z,36.10
2019-03-29T19:15:49.432Z,33.05
2019-03-29T19:18:18.634Z,34.45
2019-03-29T19:20:47.827Z,28.77
2019-03-29T19:23:17.970Z,27.05
2019-03-29T19:25:47.215Z,30.27
2019-03-29T19:28:16.438Z,26.02
2019-03-29T19:30:45.580Z,26.73
2019-03-29T19:33:14.668Z,23.87
2019-03-29T19:35:43.810Z,27.10
2019-03-29T19:38:12.972Z,27.58
2019-03-29T19:40:42.150Z,27.27
2019-03-29T19:43:11.644Z,23.27
2019-03-29T19:45:40.929Z,22.30
2019-03-29T19:48:10.118Z,24.87
2019-03-29T19:50:39.287Z,25.60
2019-03-29T19:53:08.494Z,26.90
2019-03-29T19:55:37.742Z,24.80
2019-03-29T19:58:06.989Z,25.48
2019-03-29T20:00:38.123Z,23.77
2019-03-29T20:03:07.412Z,26.25
2019-03-29T20:05:36.536Z,25.02
2019-03-29T20:08:05.839Z,25.57
2019-03-29T20:10:35.108Z,22.82
2019-03-29T20:13:04.288Z,24.75
2019-03-29T20:15:33.414Z,25.50
2019-03-29T20:18:02.526Z,25.48
2019-03-29T20:20:31.665Z,25.15
2019-03-29T20:23:00.748Z,29.05
2019-03-29T20:25:29.886Z,27.58
2019-03-29T20:27:59.143Z,26.87
2019-03-29T20:30:28.407Z,25.45
2019-03-29T20:32:57.598Z,25.48
2019-03-29T20:35:26.829Z,21.48
2019-03-29T20:37:56.040Z,20.37
2019-03-29T20:40:25.240Z,18.62
2019-03-29T20:42:54.411Z,28.60
2019-03-29T20:45:23.623Z,23.83
2019-03-29T20:47:52.810Z,19.37
2019-03-29T20:50:22.114Z,20.60
2019-03-29T20:52:51.238Z,24.15
2019-03-29T20:55:22.583Z,23.10
2019-03-29T20:57:51.739Z,23.75
2019-03-29T21:00:21.051Z,25.05
2019-03-29T21:02:50.347Z,25.37
2019-03-29T21:05:19.703Z,23.67
2019-03-29T21:07:48.972Z,24.47
2019-03-29T21:10:18.242Z,21.52
2019-03-29T21:12:47.575Z,24.90
2019-03-29T21:15:16.939Z,21.48
2019-03-29T21:17:56.664Z,25.52
2019-03-29T21:20:17.433Z,25.12
2019-03-29T21:22:46.713Z,20.15
2019-03-29T21:25:16.037Z,23.07
2019-03-29T21:27:45.230Z,22.42
2019-03-29T21:30:15.873Z,21.70
2019-03-29T21:32:45.147Z,20.15
2019-03-29T21:35:14.372Z,18.62
2019-03-29T21:37:43.563Z,23.35
2019-03-29T21:40:12.898Z,22.73
2019-03-29T21:42:42.162Z,25.27
2019-03-29T21:45:11.629Z,24.72
2019-03-29T21:47:40.768Z,24.00
2019-03-29T21:50:10.509Z,25.17
2019-03-29T21:52:39.606Z,25.85
2019-03-29T21:55:09.146Z,24.37
2019-03-29T21:57:38.309Z,21.37
2019-03-29T22:00:10.325Z,25.62
2019-03-29T22:02:39.608Z,20.25
2019-03-29T22:05:10.493Z,22.60
2019-03-29T22:07:39.902Z,21.25
2019-03-29T22:10:09.403Z,24.32
2019-03-29T22:12:38.628Z,22.62
2019-03-29T22:15:08.832Z,21.85
2019-03-29T22:17:38.145Z,21.73
2019-03-29T22:20:09.463Z,22.82
2019-03-29T22:22:38.647Z,24.75
2019-03-29T22:25:10.058Z,23.12
2019-03-29T22:27:39.296Z,24.40
2019-03-29T22:30:11.890Z,22.30
2019-03-29T22:32:41.001Z,23.83
2019-03-29T22:35:10.230Z,25.72
2019-03-29T22:37:39.302Z,22.07
2019-03-29T22:40:08.823Z,27.22
2019-03-29T22:42:37.990Z,20.92
2019-03-29T22:45:10.924Z,20.85
2019-03-29T22:47:40.089Z,24.55
2019-03-29T22:50:10.336Z,21.30
2019-03-29T22:52:39.526Z,18.62
2019-03-29T22:55:08.757Z,21.25
2019-03-29T22:57:37.861Z,21.00
2019-03-29T23:00:10.100Z,16.87
2019-03-29T23:02:39.393Z,19.15
2019-03-29T23:05:08.724Z,25.43
2019-03-29T23:07:37.897Z,24.30
2019-03-29T23:10:07.598Z,21.75
2019-03-29T23:12:39.782Z,23.90
2019-03-29T23:15:09.218Z,21.30
2019-03-29T23:17:38.340Z,23.00
2019-03-29T23:20:07.692Z,25.88
2019-03-29T23:22:36.861Z,20.57
2019-03-29T23:25:06.271Z,23.60
2019-03-29T23:27:35.891Z,19.80
2019-03-29T23:30:06.809Z,25.88
2019-03-29T23:32:35.913Z,19.90
2019-03-29T23:35:07.381Z,20.62
2019-03-29T23:37:36.615Z,19.05
2019-03-29T23:40:06.600Z,19.75
2019-03-29T23:42:41.675Z,19.02
2019-03-29T23:45:11.001Z,18.75
2019-03-29T23:47:41.175Z,19.90
2019-03-29T23:50:14.785Z,18.32
2019-03-29T23:52:41.360Z,19.27
